Portada
METAR-TAF:

METAR-TAF

Aeropuertos :

Benbecula, Escocia

latitud: 57-28N, longitud: 007-22W, altitud: 6 m

Observación

El informe se hizo hace 11 minutos, a las 13:20 UTC
Viento 12 kt del este
Temperatura 16°C
Humedad 68%
Presión 1012 hPa
Visibilidad 10 km o más
Escasas nubes a una altura de 700 ft

METAR: EGPL 141320Z 08012KT 9999 FEW007 16/10 Q1012

Hora: 14:31 (13:31 UTC)

Pronóstico

El informe se hizo hace 1 hora y 3 minutos, a las 12:28 UTC
Pronóstico válido del 14 a las 12 UTC al 14 a las 18 UTC
Viento 17 kt del este-noreste
Visibilidad 10 km o más
Nubes dispersas a una altura de 1200 ft
Probabilidad 30% :
Temporalmente
del 14 a las 12 UTC al 14 a las 15 UTC
Cielo nuboso a una altura de 800 ft

TAF: EGPL 141228Z 1412/1418 06017KT 9999 SCT012 PROB30 TEMPO 1412/1415 BKN008

Observaciones y pronósticos meteorológicos de más de 4000 aeropuertos (mensajes METAR y TAF).

Los puntos amarillos y rojos representan las estaciones disponibles.

Ponga el ratón en el punto deseado para ver el nombre de la estación.

Haga clic para ver las observaciones y los pronósticos meteorológicos.

Para cambiar el mapa : haga clic en los botones verdes con una cruz de color negro para hacer un zoom, en el botón verde con un guión para alejar o en las flechas verdes para mapas adyacentes.


METAR-TAF: